Aérodrome :
LOGIN :

S'inscrire | Disclaimer

   EN    FR    IT 

 










Légende :    VFR   VFR Marginal   IFR   IFR Intensif   IFR Très Intensif
Visi : 
Plafond : 
>= 8 km
>= 3000ft
5 à 8 km
1000 à 3000 ft
1500m à 5 km
500 à 1000 ft
800 à 1500m
200 à 500 ft
< 800m
< 200 ft
Symboles :   Orages  Brouillard  Fortes neiges  Fortes précipitations  Vent > 20 kt
SIGMETs :   Divers  Orages  Givrage  Turbulence  Onde Orograph.  Cendres Volcan.







- Altitude de l'aérodrome : 218 ft
- Code IATA : LBG
- Voir les cartes d'approche


LFPB - Paris / Le Bourget

DERNIER METAR :
  • 011730Z AUTO 27015G26KT 3000 RA BR SCT013/// BKN019/// BKN025/// ///CB 11/09 Q1002 TEMPO BKN003

METARs EXPIRÉS :
  • 011700Z AUTO 22013KT 190V250 9999 -RA BKN013/// OVC019/// ///TCU 12/10 Q1000 TEMPO 3500 RA BKN008 BECMG 21015G25KT
  • 011630Z AUTO 22012KT 9999 OVC014 12/10 Q1001 TEMPO 3500 RA BKN008 BECMG 21015G25KT
  • 011600Z AUTO 22009KT 9999 OVC012 11/09 Q1001 TEMPO 3500 RA BKN008 BECMG 21015G25KT
  • 011530Z AUTO 21010KT 9999 -RA BKN009 OVC013 10/09 Q1001 TEMPO 3500 RA BECMG 21015G25KT
  • 011500Z AUTO 21008KT 9999 OVC008 09/08 Q1002 TEMPO 3500 RA BECMG 21015G25KT

TAF TAF LFPB
Valide du 01 à 18h jusqu'au 02 à 18h UTC


011700Z 0118/0218 21010KT 9999 BKN015
BECMG 0118/0120 27010KT
TEMPO 0118/0124 27015G25KT
TEMPO 0118/0120 2500 RA BKN008
PROB30
TEMPO 0118/0120 BKN003
BECMG 0119/0121 SCT025
BECMG 0216/0218 20005KT
ATIS : +33 1 48 62 43 92
Pas de NOTAMs connus pour ce terrain.



MET'MAP, la Météo Aéronautique d'un coup d'oeil ! - Copyright ORBIFLY Décembre 2007 - Disclaimer

ORBIFLY MET'MAP TEAM :

Programmation & Développement : Alexandra Zaïnal
Conception & Développement : Baudouin d'Aumeries
Co-Programmation & Développement : Marc-Olivier Méhu
Soutien technique & logistique : Manuel Goepfert

Contact : metmap@orbifly.com




SOURCES & CREDITS :

   NOAA